createdAt,value
2019-06-20T00:01:34.392Z,4.20
2019-06-20T00:04:02.871Z,7.73
2019-06-20T00:06:31.267Z,3.83
2019-06-20T00:08:59.659Z,3.77
2019-06-20T00:11:28.254Z,4.03
2019-06-20T00:13:56.658Z,6.07
2019-06-20T00:16:25.042Z,5.30
2019-06-20T00:18:53.442Z,4.40
2019-06-20T00:21:22.244Z,4.90
2019-06-20T00:23:50.653Z,2.17
2019-06-20T00:26:19.054Z,2.17
2019-06-20T00:28:47.488Z,2.40
2019-06-20T00:31:15.888Z,2.50
2019-06-20T00:33:44.291Z,3.27
2019-06-20T00:36:12.703Z,2.73
2019-06-20T00:38:41.099Z,4.10
2019-06-20T00:41:09.580Z,3.47
2019-06-20T00:43:37.998Z,5.33
2019-06-20T00:46:06.381Z,3.93
2019-06-20T00:48:34.822Z,3.37
2019-06-20T00:51:03.219Z,2.90
2019-06-20T00:53:31.631Z,4.97
2019-06-20T00:56:00.034Z,4.27
2019-06-20T00:58:28.426Z,2.70
2019-06-20T01:00:57.108Z,2.87
2019-06-20T01:03:25.492Z,2.80
2019-06-20T01:05:53.908Z,3.70
2019-06-20T01:08:22.313Z,3.93
2019-06-20T01:10:51.246Z,3.53
2019-06-20T01:13:32.507Z,3.30
2019-06-20T01:15:49.718Z,3.00
2019-06-20T01:18:18.120Z,2.23
2019-06-20T01:20:46.909Z,2.37
2019-06-20T01:23:15.339Z,4.50
2019-06-20T01:25:44.369Z,4.17
2019-06-20T01:28:12.760Z,2.33
2019-06-20T01:30:41.403Z,3.07
2019-06-20T01:33:09.864Z,2.47
2019-06-20T01:35:38.281Z,2.63
2019-06-20T01:38:06.746Z,6.00
2019-06-20T01:40:35.144Z,2.70
2019-06-20T01:43:03.901Z,2.67
2019-06-20T01:45:32.311Z,5.80
2019-06-20T01:48:00.702Z,2.23
2019-06-20T01:50:29.104Z,2.47
2019-06-20T01:52:57.504Z,2.90
2019-06-20T01:55:26.231Z,2.27
2019-06-20T01:57:54.626Z,4.63
2019-06-20T02:00:47.189Z,4.10
2019-06-20T02:03:16.324Z,5.30
2019-06-20T02:05:45.055Z,4.37
2019-06-20T02:08:13.556Z,3.57
2019-06-20T02:10:41.956Z,3.30
2019-06-20T02:13:10.637Z,3.90
2019-06-20T02:15:39.056Z,3.00
2019-06-20T02:18:07.431Z,3.13
2019-06-20T02:20:39.117Z,4.33
2019-06-20T02:23:08.083Z,5.50
2019-06-20T02:25:36.733Z,3.00
2019-06-20T02:28:05.592Z,3.23
2019-06-20T02:30:34.093Z,3.40
2019-06-20T02:33:03.068Z,4.67
2019-06-20T02:35:31.463Z,5.47
2019-06-20T02:37:59.915Z,2.67
2019-06-20T02:40:28.305Z,6.63
2019-06-20T02:42:56.700Z,3.20
2019-06-20T02:45:25.169Z,2.50
2019-06-20T02:47:53.570Z,4.07
2019-06-20T02:50:22.148Z,3.80
2019-06-20T02:52:50.545Z,3.03
2019-06-20T02:55:19.461Z,2.07
2019-06-20T02:57:47.823Z,2.27
2019-06-20T03:00:18.093Z,1.77
2019-06-20T03:02:46.484Z,2.60
2019-06-20T03:05:15.133Z,4.50
2019-06-20T03:07:43.525Z,4.30
2019-06-20T03:10:12.159Z,2.83
2019-06-20T03:12:40.559Z,2.93
2019-06-20T03:15:09.222Z,3.40
2019-06-20T03:17:37.629Z,2.90
2019-06-20T03:20:06.318Z,2.30
2019-06-20T03:22:35.037Z,2.70
2019-06-20T03:25:03.824Z,2.97
2019-06-20T03:27:32.728Z,5.03
2019-06-20T03:30:01.154Z,3.87
2019-06-20T03:32:29.559Z,5.20
2019-06-20T03:34:57.984Z,3.30
2019-06-20T03:37:26.891Z,3.93
2019-06-20T03:39:55.262Z,3.40
2019-06-20T03:42:23.651Z,3.07
2019-06-20T03:45:01.607Z,2.93
2019-06-20T03:47:22.185Z,3.00
2019-06-20T03:49:50.832Z,2.47
2019-06-20T03:52:19.225Z,2.63
2019-06-20T03:54:47.621Z,2.80
2019-06-20T03:57:16.015Z,3.03
2019-06-20T03:59:44.411Z,2.30
2019-06-20T04:02:12.811Z,7.27
2019-06-20T04:04:41.343Z,6.83
2019-06-20T04:07:09.846Z,3.50
2019-06-20T04:09:38.250Z,3.20
2019-06-20T04:12:06.999Z,3.03
2019-06-20T04:14:35.463Z,3.13
2019-06-20T04:17:03.876Z,4.37
2019-06-20T04:19:32.274Z,3.03
2019-06-20T04:22:00.670Z,7.33
2019-06-20T04:24:29.087Z,3.00
2019-06-20T04:26:57.529Z,2.80
2019-06-20T04:29:25.915Z,3.10
2019-06-20T04:31:54.310Z,2.50
2019-06-20T04:34:22.709Z,3.03
2019-06-20T04:36:51.100Z,4.40
2019-06-20T04:39:19.887Z,2.97
2019-06-20T04:41:48.295Z,5.40
2019-06-20T04:44:16.700Z,2.90
2019-06-20T04:46:55.955Z,4.67
2019-06-20T04:49:24.350Z,6.10
2019-06-20T04:51:52.744Z,4.20
2019-06-20T04:54:21.412Z,5.20
2019-06-20T04:56:50.183Z,2.63
2019-06-20T04:59:18.619Z,3.30
2019-06-20T05:01:47.013Z,3.10
2019-06-20T05:04:15.409Z,3.50
2019-06-20T05:06:46.866Z,3.23
2019-06-20T05:09:15.257Z,6.37
2019-06-20T05:11:43.678Z,3.00
2019-06-20T05:14:12.071Z,2.90
2019-06-20T05:16:40.457Z,2.93
2019-06-20T05:19:08.855Z,3.57
2019-06-20T05:21:37.251Z,3.53
2019-06-20T05:24:05.749Z,4.47
2019-06-20T05:26:34.157Z,4.50
2019-06-20T05:29:05.376Z,4.37
2019-06-20T05:31:32.978Z,3.73
2019-06-20T05:34:01.366Z,5.67
2019-06-20T05:36:29.866Z,3.75
2019-06-20T05:38:58.259Z,3.50
2019-06-20T05:41:26.661Z,3.47
2019-06-20T05:43:55.060Z,4.87
2019-06-20T05:46:23.462Z,5.13
2019-06-20T05:48:51.873Z,3.87
2019-06-20T05:51:20.281Z,4.83
2019-06-20T05:53:48.660Z,3.37
2019-06-20T05:56:17.070Z,5.20
2019-06-20T05:58:46.024Z,3.77
2019-06-20T06:01:14.447Z,4.37
2019-06-20T06:03:44.995Z,3.67
2019-06-20T06:06:13.729Z,4.47
2019-06-20T06:08:42.132Z,4.10
2019-06-20T06:11:10.536Z,4.63
2019-06-20T06:13:39.285Z,5.03
2019-06-20T06:16:07.680Z,5.73
2019-06-20T06:18:36.154Z,5.23
2019-06-20T06:21:05.703Z,4.90
2019-06-20T06:23:34.089Z,6.70
2019-06-20T06:26:02.499Z,5.20
2019-06-20T06:28:30.887Z,5.43
2019-06-20T06:30:59.348Z,5.60
2019-06-20T06:33:27.754Z,7.10
2019-06-20T06:35:56.164Z,7.93
2019-06-20T06:38:24.611Z,7.57
2019-06-20T06:40:52.979Z,9.53
2019-06-20T06:43:21.454Z,9.70
2019-06-20T06:45:50.239Z,10.80
2019-06-20T06:48:18.708Z,10.30
2019-06-20T06:50:47.123Z,9.07
2019-06-20T06:53:15.518Z,11.80
2019-06-20T06:55:43.913Z,9.97
2019-06-20T06:58:12.667Z,11.53
2019-06-20T07:00:41.083Z,10.00
2019-06-20T07:03:09.840Z,9.77
2019-06-20T07:05:38.273Z,11.07
2019-06-20T07:08:06.646Z,9.60
2019-06-20T07:10:35.040Z,9.87
2019-06-20T07:13:03.482Z,11.67
2019-06-20T07:15:32.046Z,10.87
2019-06-20T07:18:00.442Z,10.90
2019-06-20T07:20:28.844Z,11.07
2019-06-20T07:22:57.248Z,9.70
2019-06-20T07:25:25.654Z,10.43
2019-06-20T07:27:54.601Z,9.97
2019-06-20T07:30:23.395Z,11.23
2019-06-20T07:32:51.872Z,10.73
2019-06-20T07:35:20.448Z,5.40
2019-06-20T07:37:48.822Z,6.60
2019-06-20T07:40:17.524Z,6.27
2019-06-20T07:42:46.213Z,5.07
2019-06-20T07:45:15.173Z,5.73
2019-06-20T07:47:43.591Z,4.67
2019-06-20T07:50:12.311Z,6.33
2019-06-20T07:52:40.712Z,5.63
2019-06-20T07:55:09.578Z,7.00
2019-06-20T07:57:37.983Z,6.63
2019-06-20T08:00:07.908Z,9.03
2019-06-20T08:02:36.361Z,7.40
2019-06-20T08:05:07.285Z,8.33
2019-06-20T08:07:35.754Z,8.63
2019-06-20T08:10:12.958Z,7.53
2019-06-20T08:12:41.376Z,6.70
2019-06-20T08:15:15.461Z,7.97
2019-06-20T08:17:40.847Z,7.83
2019-06-20T08:20:10.978Z,5.97
2019-06-20T08:22:39.852Z,7.57
2019-06-20T08:25:10.971Z,7.60
2019-06-20T08:27:52.768Z,5.63
2019-06-20T08:30:24.645Z,6.07
2019-06-20T08:32:53.734Z,4.50
2019-06-20T08:35:24.176Z,5.47
2019-06-20T08:37:53.904Z,4.00
2019-06-20T08:40:23.724Z,5.47
2019-06-20T08:42:52.454Z,4.40
2019-06-20T08:45:21.558Z,7.00
2019-06-20T08:47:50.069Z,4.13
2019-06-20T08:50:19.091Z,5.97
2019-06-20T08:52:47.476Z,5.77
2019-06-20T08:55:17.036Z,4.63
2019-06-20T08:57:45.511Z,4.70
2019-06-20T09:00:15.800Z,4.50
2019-06-20T09:02:44.203Z,4.97
2019-06-20T09:05:13.739Z,6.43
2019-06-20T09:07:42.567Z,3.77
2019-06-20T09:10:12.516Z,4.10
2019-06-20T09:12:41.001Z,3.17
2019-06-20T09:15:10.110Z,3.20
2019-06-20T09:17:38.863Z,4.80
2019-06-20T09:20:10.323Z,3.57
2019-06-20T09:22:38.737Z,4.83
2019-06-20T09:25:07.871Z,4.73
2019-06-20T09:27:36.912Z,5.07
2019-06-20T09:30:09.823Z,4.00
2019-06-20T09:32:38.557Z,4.73
2019-06-20T09:35:10.607Z,4.30
2019-06-20T09:37:39.173Z,3.87
2019-06-20T09:40:08.424Z,4.57
2019-06-20T09:42:37.348Z,5.03
2019-06-20T09:45:11.182Z,2.27
2019-06-20T09:47:39.861Z,4.73
2019-06-20T09:50:12.801Z,5.90
2019-06-20T09:52:41.429Z,2.50
2019-06-20T09:55:10.760Z,4.93
2019-06-20T09:57:39.284Z,4.00
2019-06-20T10:00:13.481Z,4.57
2019-06-20T10:02:41.936Z,6.13
2019-06-20T10:05:11.075Z,4.30
2019-06-20T10:07:39.640Z,3.17
2019-06-20T10:10:12.655Z,5.67
2019-06-20T10:12:41.186Z,2.80
2019-06-20T10:15:22.201Z,3.57
2019-06-20T10:17:51.509Z,3.77
2019-06-20T10:20:20.843Z,4.47
2019-06-20T10:22:49.276Z,6.40
2019-06-20T10:25:17.901Z,3.50
2019-06-20T10:27:47.912Z,4.00
2019-06-20T10:30:17.713Z,4.37
2019-06-20T10:32:46.764Z,3.80
2019-06-20T10:35:15.420Z,3.23
2019-06-20T10:37:45.566Z,3.70
2019-06-20T10:40:15.525Z,2.27
2019-06-20T10:42:44.982Z,3.23
2019-06-20T10:45:15.376Z,6.00
2019-06-20T10:47:45.395Z,3.33
2019-06-20T10:50:15.103Z,3.03
2019-06-20T10:52:43.673Z,3.80
2019-06-20T10:55:12.719Z,2.90
2019-06-20T10:57:41.856Z,3.93
2019-06-20T11:00:13.181Z,3.20
2019-06-20T11:02:43.311Z,4.07
2019-06-20T11:05:12.174Z,3.93
2019-06-20T11:07:42.072Z,3.40
2019-06-20T11:10:12.648Z,5.17
2019-06-20T11:12:47.918Z,3.20
2019-06-20T11:15:11.902Z,4.80
2019-06-20T11:17:41.896Z,4.23
2019-06-20T11:20:12.494Z,5.13
2019-06-20T11:22:41.612Z,3.47
2019-06-20T11:25:10.758Z,4.37
2019-06-20T11:27:40.518Z,4.77
2019-06-20T11:30:14.768Z,3.77
2019-06-20T11:32:43.519Z,7.53
2019-06-20T11:35:12.378Z,6.73
2019-06-20T11:37:42.266Z,4.47
2019-06-20T11:40:11.305Z,4.47
2019-06-20T11:42:40.021Z,2.40
2019-06-20T11:45:09.398Z,4.10
2019-06-20T11:47:38.284Z,2.83
2019-06-20T11:50:07.657Z,3.60
2019-06-20T11:52:41.006Z,4.87
2019-06-20T11:55:07.467Z,4.40
2019-06-20T11:57:35.864Z,4.50
2019-06-20T12:00:06.467Z,1.63
2019-06-20T12:02:34.844Z,3.47
2019-06-20T12:05:04.708Z,2.83
2019-06-20T12:07:33.123Z,5.37
2019-06-20T12:10:01.517Z,4.00
2019-06-20T12:12:29.911Z,3.40
2019-06-20T12:14:58.310Z,3.73
2019-06-20T12:17:27.086Z,4.17
2019-06-20T12:19:55.516Z,1.27
2019-06-20T12:22:24.257Z,2.07
2019-06-20T12:24:52.656Z,4.37
2019-06-20T12:27:21.049Z,2.53
2019-06-20T12:29:49.451Z,2.40
2019-06-20T12:32:19.518Z,4.70
2019-06-20T12:34:49.023Z,8.97
2019-06-20T12:37:17.503Z,3.90
2019-06-20T12:39:46.362Z,2.00
2019-06-20T12:42:14.838Z,4.50
2019-06-20T12:44:44.176Z,3.17
2019-06-20T12:47:12.751Z,1.50
2019-06-20T12:49:41.790Z,3.27
2019-06-20T12:52:10.270Z,2.10
2019-06-20T12:54:40.970Z,2.90
2019-06-20T12:57:08.816Z,4.10
2019-06-20T12:59:38.052Z,2.03
2019-06-20T13:02:08.483Z,3.27
2019-06-20T13:04:38.220Z,4.13
2019-06-20T13:07:07.188Z,1.83
2019-06-20T13:09:36.052Z,3.13
2019-06-20T13:12:04.443Z,3.23
2019-06-20T13:14:32.839Z,2.70
2019-06-20T13:17:01.241Z,3.97
2019-06-20T13:19:29.646Z,1.80
2019-06-20T13:21:58.057Z,1.47
2019-06-20T13:24:26.458Z,3.83
2019-06-20T13:26:54.862Z,2.55
2019-06-20T13:29:27.719Z,3.40
2019-06-20T13:32:03.891Z,2.53
2019-06-20T13:34:26.270Z,3.73
2019-06-20T13:36:54.672Z,3.43
2019-06-20T13:39:23.090Z,1.90
2019-06-20T13:41:51.480Z,2.23
2019-06-20T13:44:21.663Z,1.60
2019-06-20T13:46:50.302Z,1.83
2019-06-20T13:49:18.764Z,1.30
2019-06-20T13:51:47.711Z,2.23
2019-06-20T13:54:16.173Z,2.47
2019-06-20T13:56:45.349Z,1.30
2019-06-20T13:59:14.105Z,1.57
2019-06-20T14:01:44.074Z,1.57
2019-06-20T14:04:17.368Z,1.43
2019-06-20T14:06:47.278Z,1.37
2019-06-20T14:09:15.762Z,2.30
2019-06-20T14:11:45.376Z,2.40
2019-06-20T14:14:13.883Z,2.20
2019-06-20T14:16:43.030Z,1.63
2019-06-20T14:19:11.461Z,1.40
2019-06-20T14:21:40.199Z,1.87
2019-06-20T14:24:08.617Z,1.20
2019-06-20T14:26:37.013Z,1.43
2019-06-20T14:29:05.482Z,1.40
2019-06-20T14:31:33.893Z,1.50
2019-06-20T14:34:02.378Z,1.30
2019-06-20T14:36:30.809Z,2.10
2019-06-20T14:38:59.194Z,1.43
2019-06-20T14:41:27.586Z,1.60
2019-06-20T14:43:55.987Z,1.47
2019-06-20T14:46:24.388Z,1.50
2019-06-20T14:48:52.785Z,2.27
2019-06-20T14:51:21.190Z,2.53
2019-06-20T14:53:49.580Z,1.40
2019-06-20T14:56:18.350Z,1.57
2019-06-20T14:58:46.876Z,1.70
2019-06-20T15:01:15.294Z,2.90
2019-06-20T15:03:45.637Z,1.90
2019-06-20T15:06:13.811Z,1.67
2019-06-20T15:08:42.214Z,1.90
2019-06-20T15:11:12.257Z,3.97
2019-06-20T15:13:40.747Z,3.53
2019-06-20T15:16:09.142Z,2.60
2019-06-20T15:18:37.577Z,2.50
2019-06-20T15:21:06.769Z,2.40
2019-06-20T15:23:35.162Z,2.70
2019-06-20T15:26:03.560Z,2.30
2019-06-20T15:28:32.874Z,4.43
2019-06-20T15:31:01.338Z,2.70
2019-06-20T15:33:29.734Z,3.20
2019-06-20T15:35:58.438Z,3.20
2019-06-20T15:38:26.832Z,4.10
2019-06-20T15:40:55.466Z,4.97
2019-06-20T15:43:24.016Z,4.63
2019-06-20T15:45:53.743Z,3.60
2019-06-20T15:48:22.310Z,3.73
2019-06-20T15:50:50.717Z,3.20
2019-06-20T15:53:19.114Z,3.60
2019-06-20T15:55:47.515Z,5.90
2019-06-20T15:58:15.905Z,3.00
2019-06-20T16:00:44.336Z,4.07
2019-06-20T16:03:14.631Z,4.87
2019-06-20T16:05:43.009Z,2.93
2019-06-20T16:08:11.407Z,4.73
2019-06-20T16:10:40.666Z,4.00
2019-06-20T16:13:09.139Z,3.53
2019-06-20T16:15:37.579Z,2.53
2019-06-20T16:18:05.041Z,3.13
2019-06-20T16:20:33.375Z,3.20
2019-06-20T16:23:01.793Z,4.07
2019-06-20T16:25:30.174Z,5.33
2019-06-20T16:27:58.573Z,3.87
2019-06-20T16:30:27.311Z,2.33
2019-06-20T16:32:56.372Z,2.50
2019-06-20T16:35:25.342Z,3.73
2019-06-20T16:37:53.728Z,4.10
2019-06-20T16:40:40.797Z,2.10
2019-06-20T16:43:09.199Z,3.92
2019-06-20T16:45:36.661Z,2.43
2019-06-20T16:48:05.106Z,2.03
2019-06-20T16:50:33.486Z,2.50
2019-06-20T16:53:01.902Z,1.90
2019-06-20T16:55:30.292Z,2.80
2019-06-20T16:57:58.720Z,2.60
2019-06-20T17:00:27.248Z,2.53
2019-06-20T17:02:56.009Z,1.50
2019-06-20T17:05:24.515Z,2.70
2019-06-20T17:07:52.887Z,1.73
2019-06-20T17:10:23.125Z,1.87
2019-06-20T17:12:51.523Z,2.00
2019-06-20T17:15:20.593Z,2.20
2019-06-20T17:17:49.030Z,1.60
2019-06-20T17:20:17.944Z,3.47
2019-06-20T17:22:46.351Z,1.67
2019-06-20T17:25:15.179Z,3.30
2019-06-20T17:27:43.683Z,1.67
2019-06-20T17:30:14.318Z,1.83
2019-06-20T17:32:42.710Z,1.80
2019-06-20T17:35:12.146Z,2.33
2019-06-20T17:37:40.561Z,2.97
2019-06-20T17:40:10.453Z,1.50
2019-06-20T17:42:39.343Z,1.53
2019-06-20T17:45:09.817Z,1.63
2019-06-20T17:47:38.207Z,1.83
2019-06-20T17:50:08.892Z,2.50
2019-06-20T17:52:37.278Z,2.33
2019-06-20T17:55:08.624Z,3.77
2019-06-20T17:57:37.318Z,1.83
2019-06-20T18:00:11.531Z,1.60
2019-06-20T18:02:39.996Z,1.57
2019-06-20T18:05:08.832Z,1.47
2019-06-20T18:07:37.316Z,1.63
2019-06-20T18:10:07.048Z,2.00
2019-06-20T18:12:35.445Z,1.60
2019-06-20T18:15:05.274Z,1.60
2019-06-20T18:17:33.677Z,1.97
2019-06-20T18:20:02.083Z,2.00
2019-06-20T18:22:30.492Z,2.73
2019-06-20T18:24:58.870Z,1.53
2019-06-20T18:27:27.350Z,2.27
2019-06-20T18:29:55.728Z,4.13
2019-06-20T18:32:24.128Z,1.60
2019-06-20T18:35:02.060Z,2.20
2019-06-20T18:37:31.322Z,1.90
2019-06-20T18:39:52.851Z,2.17
2019-06-20T18:42:21.259Z,3.23
2019-06-20T18:44:49.679Z,1.70
2019-06-20T18:47:18.067Z,1.57
2019-06-20T18:49:46.465Z,1.80
2019-06-20T18:52:14.866Z,1.60
2019-06-20T18:54:43.270Z,2.03
2019-06-20T18:57:11.661Z,1.83
2019-06-20T18:59:40.109Z,1.50
2019-06-20T19:02:08.546Z,2.63
2019-06-20T19:04:47.785Z,3.43
2019-06-20T19:07:07.078Z,2.57
2019-06-20T19:09:35.505Z,1.53
2019-06-20T19:12:04.768Z,3.20
2019-06-20T19:14:33.161Z,4.07
2019-06-20T19:17:01.558Z,1.90
2019-06-20T19:19:30.763Z,2.20
2019-06-20T19:21:59.183Z,2.10
2019-06-20T19:24:27.933Z,3.83
2019-06-20T19:26:56.328Z,2.77
2019-06-20T19:29:24.729Z,3.63
2019-06-20T19:31:53.130Z,2.23
2019-06-20T19:34:21.630Z,2.93
2019-06-20T19:36:50.003Z,2.23
2019-06-20T19:39:18.427Z,5.43
2019-06-20T19:41:46.836Z,3.00
2019-06-20T19:44:15.230Z,3.90
2019-06-20T19:46:43.776Z,3.40
2019-06-20T19:49:12.408Z,3.50
2019-06-20T19:51:40.802Z,3.20
2019-06-20T19:54:09.209Z,1.90
2019-06-20T19:56:37.605Z,4.07
2019-06-20T19:59:06.199Z,3.17
2019-06-20T20:01:35.597Z,2.30
2019-06-20T20:04:04.374Z,3.00
2019-06-20T20:06:32.838Z,6.10
2019-06-20T20:09:01.236Z,5.10
2019-06-20T20:11:29.718Z,3.53
2019-06-20T20:13:58.111Z,2.60
2019-06-20T20:16:26.499Z,2.47
2019-06-20T20:18:54.916Z,3.83
2019-06-20T20:21:23.375Z,2.13
2019-06-20T20:23:51.796Z,2.27
2019-06-20T20:26:20.200Z,3.57
2019-06-20T20:28:48.591Z,5.77
2019-06-20T20:31:16.993Z,2.00
2019-06-20T20:33:45.394Z,2.27
2019-06-20T20:36:24.368Z,5.00
2019-06-20T20:38:43.931Z,2.10
2019-06-20T20:41:12.330Z,2.37
2019-06-20T20:43:40.724Z,3.40
2019-06-20T20:46:09.158Z,1.83
2019-06-20T20:48:37.553Z,5.20
2019-06-20T20:51:05.946Z,2.13
2019-06-20T20:53:34.351Z,4.10
2019-06-20T20:56:02.751Z,2.17
2019-06-20T20:58:31.172Z,3.30
2019-06-20T21:01:02.610Z,4.83
2019-06-20T21:03:31.041Z,2.17
2019-06-20T21:05:59.431Z,2.67
2019-06-20T21:08:27.894Z,5.67
2019-06-20T21:10:56.291Z,3.90
2019-06-20T21:13:24.768Z,4.57
2019-06-20T21:15:53.476Z,4.30
2019-06-20T21:18:21.903Z,4.70
2019-06-20T21:20:50.294Z,3.30
2019-06-20T21:23:18.751Z,5.23
2019-06-20T21:25:47.172Z,6.80
2019-06-20T21:28:15.568Z,8.37
2019-06-20T21:30:43.992Z,7.07
2019-06-20T21:33:12.400Z,3.93
2019-06-20T21:35:41.363Z,3.60
2019-06-20T21:38:09.786Z,3.33
2019-06-20T21:40:38.445Z,2.37
2019-06-20T21:43:06.850Z,5.17
2019-06-20T21:45:36.033Z,3.63
2019-06-20T21:48:05.127Z,8.00
2019-06-20T21:50:33.539Z,7.33
2019-06-20T21:53:01.932Z,5.17
2019-06-20T21:55:30.355Z,5.00
2019-06-20T21:57:58.749Z,7.27
2019-06-20T22:00:31.848Z,4.93
2019-06-20T22:03:00.286Z,6.43
2019-06-20T22:05:28.661Z,3.17
2019-06-20T22:07:57.067Z,6.10
2019-06-20T22:10:25.815Z,8.43
2019-06-20T22:12:54.235Z,3.37
2019-06-20T22:15:22.615Z,3.47
2019-06-20T22:17:51.418Z,3.87
2019-06-20T22:20:20.352Z,6.77
2019-06-20T22:22:48.786Z,4.67
2019-06-20T22:25:17.726Z,8.20
2019-06-20T22:27:48.195Z,5.77
2019-06-20T22:30:17.649Z,5.90
2019-06-20T22:32:46.044Z,2.80
2019-06-20T22:35:14.967Z,5.53
2019-06-20T22:37:43.375Z,5.03
2019-06-20T22:40:12.295Z,4.57
2019-06-20T22:42:40.693Z,4.20
2019-06-20T22:45:10.494Z,5.70
2019-06-20T22:47:39.001Z,4.90
2019-06-20T22:50:08.542Z,2.30
2019-06-20T22:52:36.940Z,4.83
2019-06-20T22:55:06.872Z,3.60
2019-06-20T22:57:35.261Z,5.23
2019-06-20T23:00:06.311Z,4.97
2019-06-20T23:02:34.699Z,4.67
2019-06-20T23:05:03.311Z,4.97
2019-06-20T23:07:31.671Z,2.13
2019-06-20T23:10:09.916Z,2.30
2019-06-20T23:12:30.755Z,4.60
2019-06-20T23:14:59.146Z,8.17
2019-06-20T23:17:27.577Z,2.57
2019-06-20T23:19:55.994Z,3.97
2019-06-20T23:22:24.383Z,2.60
2019-06-20T23:24:52.800Z,2.93
2019-06-20T23:27:21.337Z,2.80
2019-06-20T23:29:49.726Z,4.30
2019-06-20T23:32:18.194Z,3.40
2019-06-20T23:34:46.599Z,8.63
2019-06-20T23:37:15.562Z,4.70
2019-06-20T23:39:43.969Z,3.70
2019-06-20T23:42:12.364Z,2.53
2019-06-20T23:44:40.753Z,3.43
2019-06-20T23:47:09.160Z,2.63
2019-06-20T23:49:37.552Z,2.50
2019-06-20T23:52:08.083Z,4.53
2019-06-20T23:54:36.434Z,2.87
2019-06-20T23:57:04.890Z,4.40
2019-06-20T23:59:33.331Z,5.10
